Time,TemperatureF,DewpointF,PressureIn,WindDirection,WindDirectionDegrees,WindSpeedMPH,WindSpeedGustMPH,Humidity,HourlyPrecipIn,Conditions,Clouds,dailyrainin,SoftwareType,DateUTC
2013-10-06 00:00:00,74.0,72.8,30.03,N/A,-737280,0.0,-999.0,96,0.00,,,0.40,Wunderground v.1.15,2013-10-06 04:00:00,
2013-10-06 00:05:00,74.0,72.8,30.03,N/A,-737280,0.0,-999.0,96,0.00,,,0.40,Wunderground v.1.15,2013-10-06 04:05:00,
2013-10-06 00:10:00,74.0,72.8,30.03,N/A,-737280,0.0,-999.0,96,0.00,,,0.40,Wunderground v.1.15,2013-10-06 04:10:00,
2013-10-06 00:15:00,74.0,72.8,30.03,N/A,-737280,0.0,-999.0,96,0.00,,,0.40,Wunderground v.1.15,2013-10-06 04:15:00,
2013-10-06 00:20:00,74.0,72.8,30.03,N/A,-737280,0.0,-999.0,96,0.00,,,0.40,Wunderground v.1.15,2013-10-06 04:20:00,
2013-10-06 00:25:00,74.1,72.9,30.02,N/A,-737280,0.0,-999.0,96,0.00,,,0.40,Wunderground v.1.15,2013-10-06 04:25:00,
2013-10-06 00:30:00,74.1,72.9,30.02,N/A,-737280,0.0,-999.0,96,0.00,,,0.40,Wunderground v.1.15,2013-10-06 04:30:00,
2013-10-06 00:35:00,74.1,72.9,30.02,N/A,-737280,0.0,-999.0,96,0.00,,,0.40,Wunderground v.1.15,2013-10-06 04:35:00,
2013-10-06 00:40:00,73.9,72.7,30.02,N/A,-737280,0.0,-999.0,96,0.00,,,0.40,Wunderground v.1.15,2013-10-06 04:40:00,
2013-10-06 00:45:00,73.9,72.7,30.02,N/A,-737280,0.0,-999.0,96,0.00,,,0.40,Wunderground v.1.15,2013-10-06 04:45:00,
2013-10-06 00:50:00,73.9,72.7,30.02,N/A,-737280,0.0,-999.0,96,0.00,,,0.40,Wunderground v.1.15,2013-10-06 04:50:00,
2013-10-06 00:55:00,73.9,72.7,30.02,N/A,-737280,0.0,-999.0,96,0.00,,,0.40,Wunderground v.1.15,2013-10-06 04:55:00,
2013-10-06 01:00:00,73.9,72.7,30.02,N/A,-737280,0.0,-999.0,96,0.00,,,0.40,Wunderground v.1.15,2013-10-06 05:00:00,
2013-10-06 01:05:00,73.9,72.7,30.02,N/A,-737280,0.0,-999.0,96,0.00,,,0.40,Wunderground v.1.15,2013-10-06 05:05:00,
2013-10-06 01:10:00,74.1,72.9,30.02,N/A,-737280,0.0,-999.0,96,0.00,,,0.40,Wunderground v.1.15,2013-10-06 05:10:00,
2013-10-06 01:15:00,74.1,72.9,30.02,N/A,-737280,0.0,-999.0,96,0.00,,,0.40,Wunderground v.1.15,2013-10-06 05:15:00,
2013-10-06 01:20:00,74.1,72.9,30.02,N/A,-737280,0.0,-999.0,96,0.00,,,0.40,Wunderground v.1.15,2013-10-06 05:20:00,
2013-10-06 01:25:00,74.4,73.2,30.02,N/A,-737280,0.0,-999.0,96,0.00,,,0.40,Wunderground v.1.15,2013-10-06 05:25:00,
2013-10-06 01:30:00,74.4,73.2,30.02,N/A,-737280,0.0,-999.0,96,0.00,,,0.40,Wunderground v.1.15,2013-10-06 05:30:00,
2013-10-06 01:35:00,74.4,73.2,30.02,N/A,-737280,0.0,-999.0,96,0.00,,,0.40,Wunderground v.1.15,2013-10-06 05:35:00,
2013-10-06 01:40:00,74.2,73.0,30.02,N/A,-737280,0.0,-999.0,96,0.00,,,0.40,Wunderground v.1.15,2013-10-06 05:40:00,
2013-10-06 01:45:00,74.2,73.0,30.02,N/A,-737280,0.0,-999.0,96,0.00,,,0.40,Wunderground v.1.15,2013-10-06 05:45:00,
2013-10-06 01:50:00,74.2,73.0,30.02,N/A,-737280,0.0,-999.0,96,0.00,,,0.40,Wunderground v.1.15,2013-10-06 05:50:00,
2013-10-06 01:55:00,73.8,72.6,30.01,N/A,-737280,0.0,-999.0,96,0.00,,,0.40,Wunderground v.1.15,2013-10-06 05:55:00,
2013-10-06 02:00:00,73.8,72.6,30.01,N/A,-737280,0.0,-999.0,96,0.00,,,0.40,Wunderground v.1.15,2013-10-06 06:00:00,
2013-10-06 02:05:00,73.8,72.6,30.01,N/A,-737280,0.0,-999.0,96,0.00,,,0.40,Wunderground v.1.15,2013-10-06 06:05:00,
2013-10-06 02:10:00,73.3,72.1,30.01,N/A,-737280,0.0,-999.0,96,0.00,,,0.40,Wunderground v.1.15,2013-10-06 06:10:00,
2013-10-06 02:15:00,73.3,72.1,30.01,N/A,-737280,0.0,-999.0,96,0.00,,,0.40,Wunderground v.1.15,2013-10-06 06:15:00,
2013-10-06 02:20:00,73.3,72.1,30.01,N/A,-737280,0.0,-999.0,96,0.00,,,0.40,Wunderground v.1.15,2013-10-06 06:20:00,
2013-10-06 02:25:00,73.7,72.8,30.00,N/A,-737280,0.0,-999.0,97,0.00,,,0.40,Wunderground v.1.15,2013-10-06 06:25:00,
2013-10-06 02:30:00,73.7,72.8,30.00,N/A,-737280,0.0,-999.0,97,0.00,,,0.40,Wunderground v.1.15,2013-10-06 06:30:00,
2013-10-06 02:35:00,73.7,72.8,30.00,N/A,-737280,0.0,-999.0,97,0.00,,,0.40,Wunderground v.1.15,2013-10-06 06:35:00,
2013-10-06 02:40:00,73.2,72.0,30.00,N/A,-737280,0.0,-999.0,96,0.00,,,0.40,Wunderground v.1.15,2013-10-06 06:40:00,
2013-10-06 02:45:00,73.2,72.0,30.00,N/A,-737280,0.0,-999.0,96,0.00,,,0.40,Wunderground v.1.15,2013-10-06 06:45:00,
2013-10-06 02:50:00,73.2,72.0,30.00,N/A,-737280,0.0,-999.0,96,0.00,,,0.40,Wunderground v.1.15,2013-10-06 06:50:00,
2013-10-06 02:55:00,72.7,71.8,29.99,N/A,-737280,0.0,-999.0,97,0.00,,,0.40,Wunderground v.1.15,2013-10-06 06:55:00,
2013-10-06 03:00:00,72.7,71.8,29.99,N/A,-737280,0.0,-999.0,97,0.00,,,0.40,Wunderground v.1.15,2013-10-06 07:00:00,
2013-10-06 03:05:00,72.7,71.8,29.99,N/A,-737280,0.0,-999.0,97,0.00,,,0.40,Wunderground v.1.15,2013-10-06 07:05:00,
2013-10-06 03:10:00,72.6,71.7,29.99,N/A,-737280,0.0,-999.0,97,0.00,,,0.40,Wunderground v.1.15,2013-10-06 07:10:00,
2013-10-06 03:15:00,72.6,71.7,29.99,N/A,-737280,0.0,-999.0,97,0.00,,,0.40,Wunderground v.1.15,2013-10-06 07:15:00,
2013-10-06 03:20:00,72.6,71.7,29.99,N/A,-737280,0.0,-999.0,97,0.00,,,0.40,Wunderground v.1.15,2013-10-06 07:20:00,
2013-10-06 03:25:00,72.1,71.2,29.99,N/A,-737280,0.0,-999.0,97,0.00,,,0.40,Wunderground v.1.15,2013-10-06 07:25:00,
2013-10-06 03:30:00,72.1,71.2,29.99,N/A,-737280,0.0,-999.0,97,0.00,,,0.40,Wunderground v.1.15,2013-10-06 07:30:00,
2013-10-06 03:35:00,72.1,71.2,29.99,N/A,-737280,0.0,-999.0,97,0.00,,,0.40,Wunderground v.1.15,2013-10-06 07:35:00,
2013-10-06 03:40:00,72.4,71.2,29.98,N/A,-737280,0.0,-999.0,96,0.00,,,0.40,Wunderground v.1.15,2013-10-06 07:40:00,
2013-10-06 03:45:00,72.4,71.2,29.98,N/A,-737280,0.0,-999.0,96,0.00,,,0.40,Wunderground v.1.15,2013-10-06 07:45:00,
2013-10-06 03:50:00,72.4,71.2,29.98,N/A,-737280,0.0,-999.0,96,0.00,,,0.40,Wunderground v.1.15,2013-10-06 07:50:00,
2013-10-06 03:55:00,-999.9,-99.9,29.98,N/A,-737280,0.0,-999.0,-32768,0.00,,,0.40,Wunderground v.1.15,2013-10-06 07:55:00,
2013-10-06 04:00:00,-999.9,-99.9,29.98,N/A,-737280,0.0,-999.0,-32768,0.00,,,0.40,Wunderground v.1.15,2013-10-06 08:00:00,
2013-10-06 04:05:00,-999.9,-99.9,29.98,N/A,-737280,0.0,-999.0,-32768,0.00,,,0.40,Wunderground v.1.15,2013-10-06 08:05:00,
2013-10-06 04:10:00,-999.9,-99.9,29.98,N/A,-737280,0.0,-999.0,-32768,0.00,,,0.40,Wunderground v.1.15,2013-10-06 08:10:00,
2013-10-06 04:15:00,-999.9,-99.9,29.98,N/A,-737280,0.0,-999.0,-32768,0.00,,,0.40,Wunderground v.1.15,2013-10-06 08:15:00,
2013-10-06 04:20:00,-999.9,-99.9,29.98,N/A,-737280,0.0,-999.0,-32768,0.00,,,0.40,Wunderground v.1.15,2013-10-06 08:20:00,
2013-10-06 04:25:00,-999.9,-99.9,29.97,N/A,-737280,0.0,-999.0,-32768,0.00,,,0.40,Wunderground v.1.15,2013-10-06 08:25:00,
2013-10-06 04:30:00,-999.9,-99.9,29.97,N/A,-737280,0.0,-999.0,-32768,0.00,,,0.40,Wunderground v.1.15,2013-10-06 08:30:00,
2013-10-06 04:35:00,-999.9,-99.9,29.97,N/A,-737280,0.0,-999.0,-32768,0.00,,,0.40,Wunderground v.1.15,2013-10-06 08:35:00,
2013-10-06 04:40:00,-999.9,-99.9,29.97,N/A,-737280,0.0,-999.0,-32768,0.00,,,0.40,Wunderground v.1.15,2013-10-06 08:40:00,
2013-10-06 04:45:00,-999.9,-99.9,29.97,N/A,-737280,0.0,-999.0,-32768,0.00,,,0.40,Wunderground v.1.15,2013-10-06 08:45:00,
2013-10-06 04:50:00,-999.9,-99.9,29.97,N/A,-737280,0.0,-999.0,-32768,0.00,,,0.40,Wunderground v.1.15,2013-10-06 08:50:00,
2013-10-06 04:55:00,-999.9,-99.9,29.97,N/A,-737280,0.0,-999.0,-32768,0.00,,,0.40,Wunderground v.1.15,2013-10-06 08:55:00,
2013-10-06 05:00:00,-999.9,-99.9,29.97,N/A,-737280,0.0,-999.0,-32768,0.00,,,0.40,Wunderground v.1.15,2013-10-06 09:00:00,
2013-10-06 05:05:00,-999.9,-99.9,29.97,N/A,-737280,0.0,-999.0,-32768,0.00,,,0.40,Wunderground v.1.15,2013-10-06 09:05:00,
2013-10-06 05:10:00,-999.9,-99.9,29.97,N/A,-737280,0.0,-999.0,-32768,0.00,,,0.40,Wunderground v.1.15,2013-10-06 09:10:00,
2013-10-06 05:15:00,-999.9,-99.9,29.97,N/A,-737280,0.0,-999.0,-32768,0.00,,,0.40,Wunderground v.1.15,2013-10-06 09:15:00,
2013-10-06 05:20:00,-999.9,-99.9,29.97,N/A,-737280,0.0,-999.0,-32768,0.00,,,0.40,Wunderground v.1.15,2013-10-06 09:20:00,
2013-10-06 05:25:00,-999.9,-99.9,29.97,N/A,-737280,0.0,-999.0,-32768,0.00,,,0.40,Wunderground v.1.15,2013-10-06 09:25:00,
2013-10-06 05:30:00,-999.9,-99.9,29.97,N/A,-737280,0.0,-999.0,-32768,0.00,,,0.40,Wunderground v.1.15,2013-10-06 09:30:00,
2013-10-06 05:35:00,-999.9,-99.9,29.97,N/A,-737280,0.0,-999.0,-32768,0.00,,,0.40,Wunderground v.1.15,2013-10-06 09:35:00,
2013-10-06 05:40:00,-999.9,-99.9,29.97,N/A,-737280,0.0,-999.0,-32768,0.00,,,0.40,Wunderground v.1.15,2013-10-06 09:40:00,
2013-10-06 05:45:00,-999.9,-99.9,29.97,N/A,-737280,0.0,-999.0,-32768,0.00,,,0.40,Wunderground v.1.15,2013-10-06 09:45:00,
2013-10-06 05:50:00,-999.9,-99.9,29.97,N/A,-737280,0.0,-999.0,-32768,0.00,,,0.40,Wunderground v.1.15,2013-10-06 09:50:00,
2013-10-06 05:55:00,-999.9,-99.9,29.97,N/A,-737280,0.0,-999.0,-32768,0.00,,,0.40,Wunderground v.1.15,2013-10-06 09:55:00,
2013-10-06 06:00:00,-999.9,-99.9,29.97,N/A,-737280,0.0,-999.0,-32768,0.00,,,0.40,Wunderground v.1.15,2013-10-06 10:00:00,
2013-10-06 06:05:00,-999.9,-99.9,29.97,N/A,-737280,0.0,-999.0,-32768,0.00,,,0.40,Wunderground v.1.15,2013-10-06 10:05:00,
2013-10-06 06:10:00,-999.9,-99.9,29.98,N/A,-737280,0.0,-999.0,-32768,0.00,,,0.40,Wunderground v.1.15,2013-10-06 10:10:00,
2013-10-06 06:15:00,-999.9,-99.9,29.98,N/A,-737280,0.0,-999.0,-32768,0.00,,,0.40,Wunderground v.1.15,2013-10-06 10:15:00,
2013-10-06 06:20:00,-999.9,-99.9,29.98,N/A,-737280,0.0,-999.0,-32768,0.00,,,0.40,Wunderground v.1.15,2013-10-06 10:20:00,
2013-10-06 06:25:00,-999.9,-99.9,29.98,N/A,-737280,0.0,-999.0,-32768,0.00,,,0.40,Wunderground v.1.15,2013-10-06 10:25:00,
2013-10-06 06:30:00,-999.9,-99.9,29.98,N/A,-737280,0.0,-999.0,-32768,0.00,,,0.40,Wunderground v.1.15,2013-10-06 10:30:00,
2013-10-06 06:35:00,-999.9,-99.9,29.98,N/A,-737280,0.0,-999.0,-32768,0.00,,,0.40,Wunderground v.1.15,2013-10-06 10:35:00,
2013-10-06 06:40:00,-999.9,-99.9,29.98,N/A,-737280,0.0,-999.0,-32768,0.00,,,0.40,Wunderground v.1.15,2013-10-06 10:40:00,
2013-10-06 06:45:00,-999.9,-99.9,29.98,N/A,-737280,0.0,-999.0,-32768,0.00,,,0.40,Wunderground v.1.15,2013-10-06 10:45:00,
2013-10-06 06:50:00,-999.9,-99.9,29.98,N/A,-737280,0.0,-999.0,-32768,0.00,,,0.40,Wunderground v.1.15,2013-10-06 10:50:00,
2013-10-06 06:55:00,-999.9,-99.9,29.98,N/A,-737280,0.0,-999.0,-32768,0.00,,,0.40,Wunderground v.1.15,2013-10-06 10:55:00,
2013-10-06 07:00:00,-999.9,-99.9,29.98,N/A,-737280,0.0,-999.0,-32768,0.00,,,0.40,Wunderground v.1.15,2013-10-06 11:00:00,
2013-10-06 07:05:00,-999.9,-99.9,29.98,N/A,-737280,0.0,-999.0,-32768,0.00,,,0.40,Wunderground v.1.15,2013-10-06 11:05:00,
2013-10-06 07:10:00,-999.9,-99.9,29.99,N/A,-737280,0.0,-999.0,-32768,0.00,,,0.40,Wunderground v.1.15,2013-10-06 11:10:00,
2013-10-06 07:15:00,-999.9,-99.9,29.99,N/A,-737280,0.0,-999.0,-32768,0.00,,,0.40,Wunderground v.1.15,2013-10-06 11:15:00,
2013-10-06 07:20:00,-999.9,-99.9,29.99,N/A,-737280,0.0,-999.0,-32768,0.00,,,0.40,Wunderground v.1.15,2013-10-06 11:20:00,
2013-10-06 07:25:00,-999.9,-99.9,29.99,N/A,-737280,0.0,-999.0,-32768,0.00,,,0.40,Wunderground v.1.15,2013-10-06 11:25:00,
2013-10-06 07:30:00,-999.9,-99.9,29.99,N/A,-737280,0.0,-999.0,-32768,0.00,,,0.40,Wunderground v.1.15,2013-10-06 11:30:00,
2013-10-06 07:35:00,-999.9,-99.9,29.99,N/A,-737280,0.0,-999.0,-32768,0.00,,,0.40,Wunderground v.1.15,2013-10-06 11:35:00,
2013-10-06 07:40:00,-999.9,-99.9,29.99,N/A,-737280,0.0,-999.0,-32768,0.00,,,0.40,Wunderground v.1.15,2013-10-06 11:40:00,
2013-10-06 07:45:00,-999.9,-99.9,29.99,N/A,-737280,0.0,-999.0,-32768,0.00,,,0.40,Wunderground v.1.15,2013-10-06 11:45:00,
2013-10-06 07:50:00,-999.9,-99.9,29.99,N/A,-737280,0.0,-999.0,-32768,0.00,,,0.40,Wunderground v.1.15,2013-10-06 11:50:00,
2013-10-06 07:55:00,-999.9,-99.9,30.00,N/A,-737280,0.0,-999.0,-32768,0.00,,,0.40,Wunderground v.1.15,2013-10-06 11:55:00,
2013-10-06 08:00:00,-999.9,-99.9,30.00,N/A,-737280,0.0,-999.0,-32768,0.00,,,0.40,Wunderground v.1.15,2013-10-06 12:00:00,
2013-10-06 08:05:00,-999.9,-99.9,30.00,N/A,-737280,0.0,-999.0,-32768,0.00,,,0.40,Wunderground v.1.15,2013-10-06 12:05:00,
2013-10-06 08:10:00,-999.9,-99.9,29.99,N/A,-737280,0.0,-999.0,-32768,0.00,,,0.40,Wunderground v.1.15,2013-10-06 12:10:00,
2013-10-06 08:15:00,-999.9,-99.9,29.99,N/A,-737280,0.0,-999.0,-32768,0.00,,,0.40,Wunderground v.1.15,2013-10-06 12:15:00,
2013-10-06 08:20:00,-999.9,-99.9,29.99,N/A,-737280,0.0,-999.0,-32768,0.00,,,0.40,Wunderground v.1.15,2013-10-06 12:20:00,
2013-10-06 08:25:00,75.4,74.5,29.99,N/A,-737280,0.0,-999.0,97,0.01,,,0.40,Wunderground v.1.15,2013-10-06 12:25:00,
2013-10-06 08:30:00,75.4,74.5,29.99,N/A,-737280,0.0,-999.0,97,0.01,,,0.40,Wunderground v.1.15,2013-10-06 12:30:00,
2013-10-06 08:35:00,75.4,74.5,29.99,N/A,-737280,0.0,-999.0,97,0.01,,,0.40,Wunderground v.1.15,2013-10-06 12:35:00,
2013-10-06 08:40:00,75.9,75.0,30.00,N/A,-737280,0.0,-999.0,97,0.01,,,0.40,Wunderground v.1.15,2013-10-06 12:40:00,
2013-10-06 08:45:00,75.9,75.0,30.00,N/A,-737280,0.0,-999.0,97,0.01,,,0.40,Wunderground v.1.15,2013-10-06 12:45:00,
2013-10-06 08:50:00,75.9,75.0,30.00,N/A,-737280,0.0,-999.0,97,0.01,,,0.40,Wunderground v.1.15,2013-10-06 12:50:00,
2013-10-06 08:55:00,75.7,74.8,30.00,ESE,113,1.0,-999.0,97,0.01,,,0.40,Wunderground v.1.15,2013-10-06 12:55:00,
2013-10-06 09:00:00,75.7,74.8,30.00,ESE,113,1.0,-999.0,97,0.01,,,0.40,Wunderground v.1.15,2013-10-06 13:00:00,
2013-10-06 09:05:00,75.7,74.8,30.00,ESE,113,1.0,-999.0,97,0.01,,,0.40,Wunderground v.1.15,2013-10-06 13:05:00,
2013-10-06 09:10:00,75.4,74.2,30.01,ESE,113,5.0,-999.0,96,0.01,,,0.40,Wunderground v.1.15,2013-10-06 13:10:00,
2013-10-06 09:15:00,75.4,74.2,30.01,ESE,113,5.0,-999.0,96,0.01,,,0.40,Wunderground v.1.15,2013-10-06 13:15:00,
2013-10-06 09:20:00,75.4,74.2,30.01,ESE,113,5.0,-999.0,96,0.01,,,0.40,Wunderground v.1.15,2013-10-06 13:20:00,
2013-10-06 09:25:00,74.6,73.4,30.01,East,90,3.0,-999.0,96,0.05,,,0.40,Wunderground v.1.15,2013-10-06 13:25:00,
2013-10-06 09:30:00,74.6,73.4,30.01,East,90,3.0,-999.0,96,0.05,,,0.40,Wunderground v.1.15,2013-10-06 13:30:00,
2013-10-06 09:35:00,74.6,73.4,30.01,East,90,3.0,-999.0,96,0.05,,,0.40,Wunderground v.1.15,2013-10-06 13:35:00,
2013-10-06 09:40:00,74.9,73.7,30.01,NE,45,1.0,-999.0,96,0.05,,,0.40,Wunderground v.1.15,2013-10-06 13:40:00,
2013-10-06 09:45:00,74.9,73.7,30.01,NE,45,1.0,-999.0,96,0.05,,,0.40,Wunderground v.1.15,2013-10-06 13:45:00,
2013-10-06 09:50:00,74.9,73.7,30.01,NE,45,1.0,-999.0,96,0.05,,,0.40,Wunderground v.1.15,2013-10-06 13:50:00,
2013-10-06 09:55:00,75.9,74.4,30.01,N/A,-737280,0.0,-999.0,95,0.05,,,0.40,Wunderground v.1.15,2013-10-06 13:55:00,
2013-10-06 10:00:00,75.9,74.4,30.01,N/A,-737280,0.0,-999.0,95,0.05,,,0.40,Wunderground v.1.15,2013-10-06 14:00:00,
2013-10-06 10:05:00,75.9,74.4,30.01,N/A,-737280,0.0,-999.0,95,0.05,,,0.40,Wunderground v.1.15,2013-10-06 14:05:00,
2013-10-06 10:10:00,78.3,76.1,30.01,SSE,158,1.0,-999.0,93,0.05,,,0.40,Wunderground v.1.15,2013-10-06 14:10:00,
2013-10-06 10:15:00,78.3,76.1,30.01,SSE,158,1.0,-999.0,93,0.05,,,0.40,Wunderground v.1.15,2013-10-06 14:15:00,
2013-10-06 10:20:00,78.3,76.1,30.01,SSE,158,1.0,-999.0,93,0.05,,,0.40,Wunderground v.1.15,2013-10-06 14:20:00,
2013-10-06 10:25:00,78.4,75.2,30.01,SE,135,3.0,-999.0,90,0.00,,,0.40,Wunderground v.1.15,2013-10-06 14:25:00,
2013-10-06 10:30:00,78.4,75.2,30.01,SE,135,3.0,-999.0,90,0.00,,,0.40,Wunderground v.1.15,2013-10-06 14:30:00,
2013-10-06 10:35:00,78.4,75.2,30.01,SE,135,3.0,-999.0,90,0.00,,,0.40,Wunderground v.1.15,2013-10-06 14:35:00,
2013-10-06 10:40:00,78.3,74.8,30.01,ESE,113,4.0,-999.0,89,0.00,,,0.40,Wunderground v.1.15,2013-10-06 14:40:00,
2013-10-06 10:45:00,78.3,74.8,30.01,ESE,113,4.0,-999.0,89,0.00,,,0.40,Wunderground v.1.15,2013-10-06 14:45:00,
2013-10-06 10:50:00,78.3,74.8,30.01,ESE,113,4.0,-999.0,89,0.00,,,0.40,Wunderground v.1.15,2013-10-06 14:50:00,
2013-10-06 10:55:00,79.0,74.8,30.01,ESE,113,3.0,-999.0,87,0.00,,,0.40,Wunderground v.1.15,2013-10-06 14:55:00,
2013-10-06 11:00:00,79.0,74.8,30.01,ESE,113,3.0,-999.0,87,0.00,,,0.40,Wunderground v.1.15,2013-10-06 15:00:00,
2013-10-06 11:05:00,79.0,74.8,30.01,ESE,113,3.0,-999.0,87,0.00,,,0.40,Wunderground v.1.15,2013-10-06 15:05:00,
2013-10-06 11:10:00,79.3,74.4,30.00,ESE,113,5.0,-999.0,85,0.00,,,0.40,Wunderground v.1.15,2013-10-06 15:10:00,
2013-10-06 11:15:00,79.3,74.4,30.00,ESE,113,5.0,-999.0,85,0.00,,,0.40,Wunderground v.1.15,2013-10-06 15:15:00,
2013-10-06 11:20:00,79.3,74.4,30.00,ESE,113,5.0,-999.0,85,0.00,,,0.40,Wunderground v.1.15,2013-10-06 15:20:00,
2013-10-06 11:25:00,80.1,74.8,30.00,SE,135,3.0,-999.0,84,0.00,,,0.40,Wunderground v.1.15,2013-10-06 15:25:00,
2013-10-06 11:30:00,80.1,74.8,30.00,SE,135,3.0,-999.0,84,0.00,,,0.40,Wunderground v.1.15,2013-10-06 15:30:00,
2013-10-06 11:35:00,80.1,74.8,30.00,SE,135,3.0,-999.0,84,0.00,,,0.40,Wunderground v.1.15,2013-10-06 15:35:00,
2013-10-06 11:40:00,81.8,75.4,30.00,ESE,113,2.0,-999.0,81,0.00,,,0.40,Wunderground v.1.15,2013-10-06 15:40:00,
2013-10-06 11:45:00,81.8,75.4,30.00,ESE,113,2.0,-999.0,81,0.00,,,0.40,Wunderground v.1.15,2013-10-06 15:45:00,
2013-10-06 11:50:00,81.8,75.4,30.00,ESE,113,2.0,-999.0,81,0.00,,,0.40,Wunderground v.1.15,2013-10-06 15:50:00,
2013-10-06 11:55:00,82.5,75.7,30.00,ENE,68,2.0,-999.0,80,0.00,,,0.40,Wunderground v.1.15,2013-10-06 15:55:00,
2013-10-06 12:00:00,82.5,75.7,30.00,ENE,68,2.0,-999.0,80,0.00,,,0.40,Wunderground v.1.15,2013-10-06 16:00:00,
2013-10-06 12:05:00,82.5,75.7,30.00,ENE,68,2.0,-999.0,80,0.00,,,0.40,Wunderground v.1.15,2013-10-06 16:05:00,
2013-10-06 12:10:00,82.9,75.7,30.00,ENE,68,4.0,-999.0,79,0.00,,,0.40,Wunderground v.1.15,2013-10-06 16:10:00,
2013-10-06 12:15:00,82.9,75.7,30.00,ENE,68,4.0,-999.0,79,0.00,,,0.40,Wunderground v.1.15,2013-10-06 16:15:00,
2013-10-06 12:20:00,82.9,75.7,30.00,ENE,68,4.0,-999.0,79,0.00,,,0.40,Wunderground v.1.15,2013-10-06 16:20:00,
2013-10-06 12:25:00,84.4,76.0,29.99,ESE,113,4.0,-999.0,76,0.00,,,0.40,Wunderground v.1.15,2013-10-06 16:25:00,
2013-10-06 12:30:00,84.4,76.0,29.99,ESE,113,4.0,-999.0,76,0.00,,,0.40,Wunderground v.1.15,2013-10-06 16:30:00,
2013-10-06 12:35:00,84.4,76.0,29.99,ESE,113,4.0,-999.0,76,0.00,,,0.40,Wunderground v.1.15,2013-10-06 16:35:00,
2013-10-06 12:40:00,84.3,76.3,29.98,SE,135,6.0,-999.0,77,0.00,,,0.40,Wunderground v.1.15,2013-10-06 16:40:00,
2013-10-06 12:45:00,84.3,76.3,29.98,SE,135,6.0,-999.0,77,0.00,,,0.40,Wunderground v.1.15,2013-10-06 16:45:00,
2013-10-06 12:50:00,84.3,76.3,29.98,SE,135,6.0,-999.0,77,0.00,,,0.40,Wunderground v.1.15,2013-10-06 16:50:00,
2013-10-06 12:55:00,82.8,75.2,29.98,ESE,113,5.0,-999.0,78,0.00,,,0.40,Wunderground v.1.15,2013-10-06 16:55:00,
2013-10-06 13:00:00,82.8,75.2,29.98,ESE,113,5.0,-999.0,78,0.00,,,0.40,Wunderground v.1.15,2013-10-06 17:00:00,
2013-10-06 13:05:00,82.8,75.2,29.98,ESE,113,5.0,-999.0,78,0.00,,,0.40,Wunderground v.1.15,2013-10-06 17:05:00,
2013-10-06 13:10:00,82.6,75.4,29.97,ESE,113,3.0,-999.0,79,0.00,,,0.40,Wunderground v.1.15,2013-10-06 17:10:00,
2013-10-06 13:15:00,82.6,75.4,29.97,ESE,113,3.0,-999.0,79,0.00,,,0.40,Wunderground v.1.15,2013-10-06 17:15:00,
2013-10-06 13:20:00,82.6,75.4,29.97,ESE,113,3.0,-999.0,79,0.00,,,0.40,Wunderground v.1.15,2013-10-06 17:20:00,
2013-10-06 13:25:00,80.2,73.5,29.97,SW,225,5.0,-999.0,80,0.00,,,0.40,Wunderground v.1.15,2013-10-06 17:25:00,
2013-10-06 13:30:00,80.2,73.5,29.97,SW,225,5.0,-999.0,80,0.00,,,0.40,Wunderground v.1.15,2013-10-06 17:30:00,
2013-10-06 13:35:00,80.2,73.5,29.97,SW,225,5.0,-999.0,80,0.00,,,0.40,Wunderground v.1.15,2013-10-06 17:35:00,
2013-10-06 13:40:00,79.2,74.6,29.96,West,270,3.0,-999.0,86,0.00,,,0.40,Wunderground v.1.15,2013-10-06 17:40:00,
2013-10-06 13:45:00,79.2,74.6,29.96,West,270,3.0,-999.0,86,0.00,,,0.40,Wunderground v.1.15,2013-10-06 17:45:00,
2013-10-06 13:50:00,79.2,74.6,29.96,West,270,3.0,-999.0,86,0.00,,,0.40,Wunderground v.1.15,2013-10-06 17:50:00,
2013-10-06 13:55:00,78.9,75.0,29.96,West,270,1.0,-999.0,88,0.02,,,0.40,Wunderground v.1.15,2013-10-06 17:55:00,
2013-10-06 14:00:00,78.9,75.0,29.96,West,270,1.0,-999.0,88,0.02,,,0.40,Wunderground v.1.15,2013-10-06 18:00:00,
2013-10-06 14:05:00,78.9,75.0,29.96,West,270,1.0,-999.0,88,0.02,,,0.40,Wunderground v.1.15,2013-10-06 18:05:00,
2013-10-06 14:10:00,78.5,75.3,29.95,NW,315,2.0,-999.0,90,0.33,,,0.40,Wunderground v.1.15,2013-10-06 18:10:00,
2013-10-06 14:15:00,78.5,75.3,29.95,NW,315,2.0,-999.0,90,0.33,,,0.40,Wunderground v.1.15,2013-10-06 18:15:00,
2013-10-06 14:20:00,78.5,75.3,29.95,NW,315,2.0,-999.0,90,0.33,,,0.40,Wunderground v.1.15,2013-10-06 18:20:00,
2013-10-06 14:25:00,80.2,76.7,29.94,West,270,1.0,-999.0,89,0.34,,,0.40,Wunderground v.1.15,2013-10-06 18:25:00,
2013-10-06 14:30:00,80.2,76.7,29.94,West,270,1.0,-999.0,89,0.34,,,0.40,Wunderground v.1.15,2013-10-06 18:30:00,
2013-10-06 14:35:00,80.2,76.7,29.94,West,270,1.0,-999.0,89,0.34,,,0.40,Wunderground v.1.15,2013-10-06 18:35:00,
2013-10-06 14:40:00,83.3,78.7,29.94,WNW,293,0.0,-999.0,86,0.34,,,0.40,Wunderground v.1.15,2013-10-06 18:40:00,
2013-10-06 14:45:00,83.3,78.7,29.94,WNW,293,0.0,-999.0,86,0.34,,,0.40,Wunderground v.1.15,2013-10-06 18:45:00,
2013-10-06 14:50:00,83.3,78.7,29.94,WNW,293,0.0,-999.0,86,0.34,,,0.40,Wunderground v.1.15,2013-10-06 18:50:00,
2013-10-06 14:55:00,84.7,77.1,29.93,East,90,2.0,-999.0,78,0.32,,,0.40,Wunderground v.1.15,2013-10-06 18:55:00,
2013-10-06 15:00:00,84.7,77.1,29.93,East,90,2.0,-999.0,78,0.32,,,0.40,Wunderground v.1.15,2013-10-06 19:00:00,
2013-10-06 15:05:00,84.7,77.1,29.93,East,90,2.0,-999.0,78,0.32,,,0.40,Wunderground v.1.15,2013-10-06 19:05:00,
2013-10-06 15:10:00,84.3,76.3,29.92,ESE,113,6.0,-999.0,77,0.01,,,0.40,Wunderground v.1.15,2013-10-06 19:10:00,
2013-10-06 15:15:00,84.3,76.3,29.92,ESE,113,6.0,-999.0,77,0.01,,,0.40,Wunderground v.1.15,2013-10-06 19:15:00,
2013-10-06 15:20:00,84.3,76.3,29.92,ESE,113,6.0,-999.0,77,0.01,,,0.40,Wunderground v.1.15,2013-10-06 19:20:00,
2013-10-06 15:25:00,84.3,76.3,29.92,SE,135,8.0,-999.0,77,0.00,,,0.40,Wunderground v.1.15,2013-10-06 19:25:00,
2013-10-06 15:30:00,84.3,76.3,29.92,SE,135,8.0,-999.0,77,0.00,,,0.40,Wunderground v.1.15,2013-10-06 19:30:00,
2013-10-06 15:35:00,84.3,76.3,29.92,SE,135,8.0,-999.0,77,0.00,,,0.40,Wunderground v.1.15,2013-10-06 19:35:00,
2013-10-06 15:40:00,84.3,75.5,29.91,ESE,113,9.0,-999.0,75,0.00,,,0.40,Wunderground v.1.15,2013-10-06 19:40:00,
2013-10-06 15:45:00,84.3,75.5,29.91,ESE,113,9.0,-999.0,75,0.00,,,0.40,Wunderground v.1.15,2013-10-06 19:45:00,
2013-10-06 15:50:00,84.3,75.5,29.91,ESE,113,9.0,-999.0,75,0.00,,,0.40,Wunderground v.1.15,2013-10-06 19:50:00,
2013-10-06 15:55:00,83.1,75.1,29.91,ESE,113,9.0,-999.0,77,0.00,,,0.40,Wunderground v.1.15,2013-10-06 19:55:00,
2013-10-06 16:00:00,83.1,75.1,29.91,ESE,113,9.0,-999.0,77,0.00,,,0.40,Wunderground v.1.15,2013-10-06 20:00:00,
2013-10-06 16:05:00,83.1,75.1,29.91,ESE,113,9.0,-999.0,77,0.00,,,0.40,Wunderground v.1.15,2013-10-06 20:05:00,
2013-10-06 16:10:00,83.7,74.9,29.90,ESE,113,9.0,-999.0,75,0.00,,,0.40,Wunderground v.1.15,2013-10-06 20:10:00,
2013-10-06 16:15:00,83.7,74.9,29.90,ESE,113,9.0,-999.0,75,0.00,,,0.40,Wunderground v.1.15,2013-10-06 20:15:00,
2013-10-06 16:20:00,83.7,74.9,29.90,ESE,113,9.0,-999.0,75,0.00,,,0.40,Wunderground v.1.15,2013-10-06 20:20:00,
2013-10-06 16:25:00,84.0,76.0,29.90,ESE,113,8.0,-999.0,77,0.00,,,0.40,Wunderground v.1.15,2013-10-06 20:25:00,
2013-10-06 16:30:00,84.0,76.0,29.90,ESE,113,8.0,-999.0,77,0.00,,,0.40,Wunderground v.1.15,2013-10-06 20:30:00,
2013-10-06 16:35:00,84.0,76.0,29.90,ESE,113,8.0,-999.0,77,0.00,,,0.40,Wunderground v.1.15,2013-10-06 20:35:00,
2013-10-06 16:40:00,84.0,76.0,29.90,ESE,113,7.0,-999.0,77,0.00,,,0.40,Wunderground v.1.15,2013-10-06 20:40:00,
2013-10-06 16:45:00,84.0,76.0,29.90,ESE,113,7.0,-999.0,77,0.00,,,0.40,Wunderground v.1.15,2013-10-06 20:45:00,
2013-10-06 16:50:00,84.0,76.0,29.90,ESE,113,7.0,-999.0,77,0.00,,,0.40,Wunderground v.1.15,2013-10-06 20:50:00,
2013-10-06 16:55:00,83.1,75.1,29.90,ESE,113,8.0,-999.0,77,0.00,,,0.40,Wunderground v.1.15,2013-10-06 20:55:00,
2013-10-06 17:00:00,83.1,75.1,29.90,ESE,113,8.0,-999.0,77,0.00,,,0.40,Wunderground v.1.15,2013-10-06 21:00:00,
2013-10-06 17:05:00,83.1,75.1,29.90,ESE,113,8.0,-999.0,77,0.00,,,0.40,Wunderground v.1.15,2013-10-06 21:05:00,
2013-10-06 17:10:00,82.6,74.3,29.90,ESE,113,7.0,-999.0,76,0.00,,,0.40,Wunderground v.1.15,2013-10-06 21:10:00,
2013-10-06 17:15:00,82.6,74.3,29.90,ESE,113,7.0,-999.0,76,0.00,,,0.40,Wunderground v.1.15,2013-10-06 21:15:00,
2013-10-06 17:20:00,82.6,74.3,29.90,ESE,113,7.0,-999.0,76,0.00,,,0.40,Wunderground v.1.15,2013-10-06 21:20:00,
2013-10-06 17:25:00,82.5,74.9,29.90,ESE,113,6.0,-999.0,78,0.00,,,0.40,Wunderground v.1.15,2013-10-06 21:25:00,
2013-10-06 17:30:00,82.5,74.9,29.90,ESE,113,6.0,-999.0,78,0.00,,,0.40,Wunderground v.1.15,2013-10-06 21:30:00,
2013-10-06 17:35:00,82.5,74.9,29.90,ESE,113,6.0,-999.0,78,0.00,,,0.40,Wunderground v.1.15,2013-10-06 21:35:00,
2013-10-06 17:40:00,82.1,74.9,29.90,ESE,113,4.0,-999.0,79,0.00,,,0.40,Wunderground v.1.15,2013-10-06 21:40:00,
2013-10-06 17:45:00,82.1,74.9,29.90,ESE,113,4.0,-999.0,79,0.00,,,0.40,Wunderground v.1.15,2013-10-06 21:45:00,
2013-10-06 17:50:00,82.1,74.9,29.90,ESE,113,4.0,-999.0,79,0.00,,,0.40,Wunderground v.1.15,2013-10-06 21:50:00,
2013-10-06 17:55:00,82.3,75.5,29.89,East,90,5.0,-999.0,80,0.00,,,0.40,Wunderground v.1.15,2013-10-06 21:55:00,
2013-10-06 18:00:00,82.3,75.5,29.89,East,90,5.0,-999.0,80,0.00,,,0.40,Wunderground v.1.15,2013-10-06 22:00:00,
2013-10-06 18:05:00,82.3,75.5,29.89,East,90,5.0,-999.0,80,0.00,,,0.40,Wunderground v.1.15,2013-10-06 22:05:00,
2013-10-06 18:10:00,82.1,75.7,29.90,ESE,113,9.0,-999.0,81,0.00,,,0.40,Wunderground v.1.15,2013-10-06 22:10:00,
2013-10-06 18:15:00,82.1,75.7,29.90,ESE,113,9.0,-999.0,81,0.00,,,0.40,Wunderground v.1.15,2013-10-06 22:15:00,
2013-10-06 18:20:00,82.1,75.7,29.90,ESE,113,9.0,-999.0,81,0.00,,,0.40,Wunderground v.1.15,2013-10-06 22:20:00,
2013-10-06 18:25:00,81.7,76.0,29.91,ESE,113,9.0,-999.0,83,0.00,,,0.40,Wunderground v.1.15,2013-10-06 22:25:00,
2013-10-06 18:30:00,81.7,76.0,29.91,ESE,113,9.0,-999.0,83,0.00,,,0.40,Wunderground v.1.15,2013-10-06 22:30:00,
2013-10-06 18:35:00,81.7,76.0,29.91,ESE,113,9.0,-999.0,83,0.00,,,0.40,Wunderground v.1.15,2013-10-06 22:35:00,
2013-10-06 18:40:00,81.1,75.4,29.91,ESE,113,8.0,-999.0,83,0.00,,,0.40,Wunderground v.1.15,2013-10-06 22:40:00,
2013-10-06 18:45:00,81.1,75.4,29.91,ESE,113,8.0,-999.0,83,0.00,,,0.40,Wunderground v.1.15,2013-10-06 22:45:00,
2013-10-06 18:50:00,81.1,75.4,29.91,ESE,113,8.0,-999.0,83,0.00,,,0.40,Wunderground v.1.15,2013-10-06 22:50:00,
2013-10-06 19:00:00,80.4,75.8,29.90,ESE,113,6.0,-999.0,86,0.00,,,0.40,Wunderground v.1.15,2013-10-06 23:00:00,
2013-10-06 19:05:00,80.4,75.8,29.90,ESE,113,6.0,-999.0,86,0.00,,,0.40,Wunderground v.1.15,2013-10-06 23:05:00,
2013-10-06 19:10:00,79.8,75.9,29.91,ESE,113,5.0,-999.0,88,0.00,,,0.40,Wunderground v.1.15,2013-10-06 23:10:00,
2013-10-06 19:15:00,79.8,75.9,29.91,ESE,113,5.0,-999.0,88,0.00,,,0.40,Wunderground v.1.15,2013-10-06 23:15:00,
2013-10-06 19:20:00,79.8,75.9,29.91,ESE,113,5.0,-999.0,88,0.00,,,0.40,Wunderground v.1.15,2013-10-06 23:20:00,
2013-10-06 19:25:00,79.4,75.9,29.91,ESE,113,4.0,-999.0,89,0.00,,,0.40,Wunderground v.1.15,2013-10-06 23:25:00,
2013-10-06 19:30:00,79.4,75.9,29.91,ESE,113,4.0,-999.0,89,0.00,,,0.40,Wunderground v.1.15,2013-10-06 23:30:00,
2013-10-06 19:35:00,79.4,75.9,29.91,ESE,113,4.0,-999.0,89,0.00,,,0.40,Wunderground v.1.15,2013-10-06 23:35:00,
2013-10-06 19:40:00,79.2,75.7,29.91,ESE,113,3.0,-999.0,89,0.00,,,0.40,Wunderground v.1.15,2013-10-06 23:40:00,
2013-10-06 19:45:00,79.2,75.7,29.91,ESE,113,3.0,-999.0,89,0.00,,,0.40,Wunderground v.1.15,2013-10-06 23:45:00,
2013-10-06 19:50:00,79.2,75.7,29.91,ESE,113,3.0,-999.0,89,0.00,,,0.40,Wunderground v.1.15,2013-10-06 23:50:00,
2013-10-06 19:55:00,78.8,75.6,29.91,SE,135,1.0,-999.0,90,0.00,,,0.40,Wunderground v.1.15,2013-10-06 23:55:00,
2013-10-06 20:00:00,78.8,75.6,29.91,SE,135,1.0,-999.0,90,0.00,,,0.40,Wunderground v.1.15,2013-10-07 00:00:00,
2013-10-06 20:05:00,78.8,75.6,29.91,SE,135,1.0,-999.0,90,0.00,,,0.40,Wunderground v.1.15,2013-10-07 00:05:00,
2013-10-06 20:10:00,78.7,75.5,29.91,SSE,158,3.0,-999.0,90,0.00,,,0.40,Wunderground v.1.15,2013-10-07 00:10:00,
2013-10-06 20:15:00,78.7,75.5,29.91,SSE,158,3.0,-999.0,90,0.00,,,0.40,Wunderground v.1.15,2013-10-07 00:15:00,
2013-10-06 20:20:00,78.7,75.5,29.91,SSE,158,3.0,-999.0,90,0.00,,,0.40,Wunderground v.1.15,2013-10-07 00:20:00,
2013-10-06 20:25:00,79.0,75.8,29.92,SE,135,4.0,-999.0,90,0.00,,,0.40,Wunderground v.1.15,2013-10-07 00:25:00,
2013-10-06 20:30:00,79.0,75.8,29.92,SE,135,4.0,-999.0,90,0.00,,,0.40,Wunderground v.1.15,2013-10-07 00:30:00,
2013-10-06 20:35:00,79.0,75.8,29.92,SE,135,4.0,-999.0,90,0.00,,,0.40,Wunderground v.1.15,2013-10-07 00:35:00,
2013-10-06 20:40:00,79.0,75.5,29.92,SSE,158,4.0,-999.0,89,0.00,,,0.40,Wunderground v.1.15,2013-10-07 00:40:00,
2013-10-06 20:45:00,79.0,75.5,29.92,SSE,158,4.0,-999.0,89,0.00,,,0.40,Wunderground v.1.15,2013-10-07 00:45:00,
2013-10-06 20:50:00,79.0,75.5,29.92,SSE,158,4.0,-999.0,89,0.00,,,0.40,Wunderground v.1.15,2013-10-07 00:50:00,
2013-10-06 20:55:00,79.0,75.8,29.91,SSE,158,3.0,-999.0,90,0.00,,,0.40,Wunderground v.1.15,2013-10-07 00:55:00,
2013-10-06 21:00:00,79.0,75.8,29.91,SSE,158,3.0,-999.0,90,0.00,,,0.40,Wunderground v.1.15,2013-10-07 01:00:00,
2013-10-06 21:05:00,79.0,75.8,29.91,SSE,158,3.0,-999.0,90,0.00,,,0.40,Wunderground v.1.15,2013-10-07 01:05:00,
2013-10-06 21:10:00,79.0,75.8,29.91,SSE,158,3.0,-999.0,90,0.00,,,0.40,Wunderground v.1.15,2013-10-07 01:10:00,
2013-10-06 21:15:00,79.0,75.8,29.91,SSE,158,3.0,-999.0,90,0.00,,,0.40,Wunderground v.1.15,2013-10-07 01:15:00,
2013-10-06 21:20:00,79.0,75.8,29.91,SSE,158,3.0,-999.0,90,0.00,,,0.40,Wunderground v.1.15,2013-10-07 01:20:00,
2013-10-06 21:25:00,78.9,75.7,29.91,South,180,4.0,-999.0,90,0.00,,,0.40,Wunderground v.1.15,2013-10-07 01:25:00,
2013-10-06 21:30:00,78.9,75.7,29.91,South,180,4.0,-999.0,90,0.00,,,0.40,Wunderground v.1.15,2013-10-07 01:30:00,
2013-10-06 21:35:00,78.9,75.7,29.91,South,180,4.0,-999.0,90,0.00,,,0.40,Wunderground v.1.15,2013-10-07 01:35:00,
2013-10-06 21:40:00,78.7,75.5,29.91,South,180,4.0,-999.0,90,0.00,,,0.40,Wunderground v.1.15,2013-10-07 01:40:00,
2013-10-06 21:45:00,78.7,75.5,29.91,South,180,4.0,-999.0,90,0.00,,,0.40,Wunderground v.1.15,2013-10-07 01:45:00,
2013-10-06 21:50:00,78.7,75.5,29.91,South,180,4.0,-999.0,90,0.00,,,0.40,Wunderground v.1.15,2013-10-07 01:50:00,
2013-10-06 21:55:00,78.6,75.4,29.91,South,180,4.0,-999.0,90,0.00,,,0.40,Wunderground v.1.15,2013-10-07 01:55:00,
2013-10-06 22:00:00,78.6,75.4,29.91,South,180,4.0,-999.0,90,0.00,,,0.40,Wunderground v.1.15,2013-10-07 02:00:00,
2013-10-06 22:05:00,78.6,75.4,29.91,South,180,4.0,-999.0,90,0.00,,,0.40,Wunderground v.1.15,2013-10-07 02:05:00,
2013-10-06 22:10:00,78.5,75.7,29.91,South,180,4.0,-999.0,91,0.00,,,0.40,Wunderground v.1.15,2013-10-07 02:10:00,
2013-10-06 22:15:00,78.5,75.7,29.91,South,180,4.0,-999.0,91,0.00,,,0.40,Wunderground v.1.15,2013-10-07 02:15:00,
2013-10-06 22:20:00,78.5,75.7,29.91,South,180,4.0,-999.0,91,0.00,,,0.40,Wunderground v.1.15,2013-10-07 02:20:00,
2013-10-06 22:25:00,78.3,75.5,29.91,South,180,3.0,-999.0,91,0.00,,,0.40,Wunderground v.1.15,2013-10-07 02:25:00,
2013-10-06 22:30:00,78.3,75.5,29.91,South,180,3.0,-999.0,91,0.00,,,0.40,Wunderground v.1.15,2013-10-07 02:30:00,
2013-10-06 22:35:00,78.3,75.5,29.91,South,180,3.0,-999.0,91,0.00,,,0.40,Wunderground v.1.15,2013-10-07 02:35:00,
2013-10-06 22:40:00,78.2,75.7,29.91,South,180,3.0,-999.0,92,0.00,,,0.40,Wunderground v.1.15,2013-10-07 02:40:00,
2013-10-06 22:45:00,78.2,75.7,29.91,South,180,3.0,-999.0,92,0.00,,,0.40,Wunderground v.1.15,2013-10-07 02:45:00,
2013-10-06 22:50:00,78.2,75.7,29.91,South,180,3.0,-999.0,92,0.00,,,0.40,Wunderground v.1.15,2013-10-07 02:50:00,
2013-10-06 22:55:00,78.1,75.6,29.91,SSE,158,3.0,-999.0,92,0.00,,,0.40,Wunderground v.1.15,2013-10-07 02:55:00,
2013-10-06 23:00:00,78.1,75.6,29.91,SSE,158,3.0,-999.0,92,0.00,,,0.40,Wunderground v.1.15,2013-10-07 03:00:00,
2013-10-06 23:05:00,78.1,75.6,29.91,SSE,158,3.0,-999.0,92,0.00,,,0.40,Wunderground v.1.15,2013-10-07 03:05:00,
2013-10-06 23:10:00,78.2,75.7,29.91,South,180,4.0,-999.0,92,0.00,,,0.40,Wunderground v.1.15,2013-10-07 03:10:00,
2013-10-06 23:15:00,78.2,75.7,29.91,South,180,4.0,-999.0,92,0.00,,,0.40,Wunderground v.1.15,2013-10-07 03:15:00,
2013-10-06 23:20:00,78.2,75.7,29.91,South,180,4.0,-999.0,92,0.00,,,0.40,Wunderground v.1.15,2013-10-07 03:20:00,
2013-10-06 23:25:00,78.2,75.7,29.91,South,180,4.0,-999.0,92,0.00,,,0.40,Wunderground v.1.15,2013-10-07 03:25:00,
2013-10-06 23:30:00,78.2,75.7,29.91,South,180,4.0,-999.0,92,0.00,,,0.40,Wunderground v.1.15,2013-10-07 03:30:00,
2013-10-06 23:35:00,78.2,75.7,29.91,South,180,4.0,-999.0,92,0.00,,,0.40,Wunderground v.1.15,2013-10-07 03:35:00,
2013-10-06 23:40:00,78.3,75.8,29.90,SSE,158,4.0,-999.0,92,0.00,,,0.40,Wunderground v.1.15,2013-10-07 03:40:00,
2013-10-06 23:45:00,78.3,75.8,29.90,SSE,158,4.0,-999.0,92,0.00,,,0.40,Wunderground v.1.15,2013-10-07 03:45:00,
2013-10-06 23:50:00,78.3,75.8,29.90,SSE,158,4.0,-999.0,92,0.00,,,0.40,Wunderground v.1.15,2013-10-07 03:50:00,
2013-10-06 23:55:00,78.2,75.4,29.89,South,180,5.0,-999.0,91,0.00,,,0.40,Wunderground v.1.15,2013-10-07 03:55:00,